Terminal Aerodrome Forecast
Issued by NWS Wilmington, OH

Current Version | Previous Version | Text Only | Print | Product List | Glossary Off
Versions: 1 2 3 4 5 6 7 8 9 10 11 12 13 14 15 16 17 18 19 20 21 22 23 24

000
FTUS41 KILN 160306 AAB
TAFILN
TAF AMD
KILN 160306Z 1603/1624 23012G20KT P6SM VCTS OVC025CB
      TEMPO 1603/1605 4SM SHRA OVC025
     FM160600 25012G22KT 2SM SHRA OVC012
     FM161000 31012G18KT 5SM -SHRA OVC015
     FM161200 34010KT P6SM VCSH OVC015
     FM161500 33012G18KT P6SM BKN018
     FM162000 34012KT P6SM SCT025=

USA.gov is the U.S. government's official web portal to all federal, state and local government web resources and services.